sensor_id;sensor_type;location;lat;lon;timestamp;P1;durP1;ratioP1;P2;durP2;ratioP2
15443;SDS011;7822;48.146;11.576;2022-10-31T00:01:51;9.85;;;6.85;;
15443;SDS011;7822;48.146;11.576;2022-10-31T00:04:19;10.88;;;7.20;;
15443;SDS011;7822;48.146;11.576;2022-10-31T00:06:46;9.05;;;6.72;;
15443;SDS011;7822;48.146;11.576;2022-10-31T00:09:14;8.37;;;6.70;;
15443;SDS011;7822;48.146;11.576;2022-10-31T00:11:42;9.73;;;6.25;;
15443;SDS011;7822;48.146;11.576;2022-10-31T00:14:09;10.63;;;6.40;;
15443;SDS011;7822;48.146;11.576;2022-10-31T00:16:37;8.52;;;6.07;;
15443;SDS011;7822;48.146;11.576;2022-10-31T00:19:09;10.55;;;6.18;;
15443;SDS011;7822;48.146;11.576;2022-10-31T00:21:36;9.77;;;5.97;;
15443;SDS011;7822;48.146;11.576;2022-10-31T00:24:05;10.05;;;5.88;;
15443;SDS011;7822;48.146;11.576;2022-10-31T00:26:33;8.05;;;5.32;;
15443;SDS011;7822;48.146;11.576;2022-10-31T00:29:00;10.70;;;5.10;;
15443;SDS011;7822;48.146;11.576;2022-10-31T00:31:29;9.10;;;5.00;;
15443;SDS011;7822;48.146;11.576;2022-10-31T00:33:58;7.68;;;4.85;;
15443;SDS011;7822;48.146;11.576;2022-10-31T00:36:27;9.50;;;5.20;;
15443;SDS011;7822;48.146;11.576;2022-10-31T00:38:55;7.28;;;5.05;;
15443;SDS011;7822;48.146;11.576;2022-10-31T00:41:25;9.63;;;5.20;;
15443;SDS011;7822;48.146;11.576;2022-10-31T00:43:54;13.00;;;5.53;;
15443;SDS011;7822;48.146;11.576;2022-10-31T00:46:22;9.60;;;5.03;;
15443;SDS011;7822;48.146;11.576;2022-10-31T00:48:52;9.30;;;5.07;;
15443;SDS011;7822;48.146;11.576;2022-10-31T00:51:19;7.13;;;4.20;;
15443;SDS011;7822;48.146;11.576;2022-10-31T00:53:50;7.60;;;5.13;;
15443;SDS011;7822;48.146;11.576;2022-10-31T00:56:22;8.77;;;5.00;;
15443;SDS011;7822;48.146;11.576;2022-10-31T00:58:50;9.87;;;5.27;;
15443;SDS011;7822;48.146;11.576;2022-10-31T01:01:18;6.57;;;4.93;;
15443;SDS011;7822;48.146;11.576;2022-10-31T01:03:45;9.03;;;4.93;;
15443;SDS011;7822;48.146;11.576;2022-10-31T01:06:13;6.90;;;4.50;;
15443;SDS011;7822;48.146;11.576;2022-10-31T01:08:43;6.05;;;5.13;;
15443;SDS011;7822;48.146;11.576;2022-10-31T01:11:13;5.90;;;4.50;;
15443;SDS011;7822;48.146;11.576;2022-10-31T01:13:42;8.53;;;4.90;;
15443;SDS011;7822;48.146;11.576;2022-10-31T01:16:16;8.80;;;5.17;;
15443;SDS011;7822;48.146;11.576;2022-10-31T01:18:48;8.20;;;5.23;;
15443;SDS011;7822;48.146;11.576;2022-10-31T01:21:16;6.73;;;4.07;;
15443;SDS011;7822;48.146;11.576;2022-10-31T01:23:45;7.53;;;5.20;;
15443;SDS011;7822;48.146;11.576;2022-10-31T01:26:15;6.67;;;4.57;;
15443;SDS011;7822;48.146;11.576;2022-10-31T01:28:45;5.83;;;4.43;;
15443;SDS011;7822;48.146;11.576;2022-10-31T01:31:17;7.50;;;4.80;;
15443;SDS011;7822;48.146;11.576;2022-10-31T01:33:47;7.53;;;4.80;;
15443;SDS011;7822;48.146;11.576;2022-10-31T01:36:16;7.23;;;4.23;;
15443;SDS011;7822;48.146;11.576;2022-10-31T01:38:45;8.00;;;5.00;;
15443;SDS011;7822;48.146;11.576;2022-10-31T01:41:16;6.00;;;4.60;;
15443;SDS011;7822;48.146;11.576;2022-10-31T01:43:46;7.23;;;5.00;;
15443;SDS011;7822;48.146;11.576;2022-10-31T01:46:16;7.27;;;4.97;;
15443;SDS011;7822;48.146;11.576;2022-10-31T01:48:47;8.90;;;5.63;;
15443;SDS011;7822;48.146;11.576;2022-10-31T01:51:17;10.23;;;5.67;;
15443;SDS011;7822;48.146;11.576;2022-10-31T01:53:47;8.90;;;4.97;;
15443;SDS011;7822;48.146;11.576;2022-10-31T01:56:21;11.17;;;5.83;;
15443;SDS011;7822;48.146;11.576;2022-10-31T01:58:50;6.87;;;4.40;;
15443;SDS011;7822;48.146;11.576;2022-10-31T02:01:19;9.97;;;5.20;;
15443;SDS011;7822;48.146;11.576;2022-10-31T02:03:48;9.17;;;5.27;;
15443;SDS011;7822;48.146;11.576;2022-10-31T02:06:19;6.13;;;4.43;;
15443;SDS011;7822;48.146;11.576;2022-10-31T02:08:56;6.50;;;4.33;;
15443;SDS011;7822;48.146;11.576;2022-10-31T02:11:28;7.33;;;4.30;;
15443;SDS011;7822;48.146;11.576;2022-10-31T02:14:00;9.37;;;4.87;;
15443;SDS011;7822;48.146;11.576;2022-10-31T02:16:28;8.77;;;4.90;;
15443;SDS011;7822;48.146;11.576;2022-10-31T02:18:56;7.80;;;4.47;;
15443;SDS011;7822;48.146;11.576;2022-10-31T02:21:26;7.80;;;4.43;;
15443;SDS011;7822;48.146;11.576;2022-10-31T02:24:04;10.77;;;4.57;;
15443;SDS011;7822;48.146;11.576;2022-10-31T02:26:58;5.93;;;4.43;;
15443;SDS011;7822;48.146;11.576;2022-10-31T02:35:37;7.37;;;4.13;;
15443;SDS011;7822;48.146;11.576;2022-10-31T02:38:13;8.13;;;3.87;;
15443;SDS011;7822;48.146;11.576;2022-10-31T02:40:51;8.77;;;4.37;;
15443;SDS011;7822;48.146;11.576;2022-10-31T02:43:27;7.80;;;3.83;;
15443;SDS011;7822;48.146;11.576;2022-10-31T02:46:02;7.07;;;3.83;;
15443;SDS011;7822;48.146;11.576;2022-10-31T02:48:37;5.93;;;3.30;;
15443;SDS011;7822;48.146;11.576;2022-10-31T02:51:07;4.40;;;3.93;;
15443;SDS011;7822;48.146;11.576;2022-10-31T02:53:37;5.47;;;3.80;;
15443;SDS011;7822;48.146;11.576;2022-10-31T02:56:09;8.73;;;4.17;;
15443;SDS011;7822;48.146;11.576;2022-10-31T02:58:41;4.87;;;3.80;;
15443;SDS011;7822;48.146;11.576;2022-10-31T03:01:19;8.93;;;4.27;;
15443;SDS011;7822;48.146;11.576;2022-10-31T03:03:59;5.80;;;3.67;;
15443;SDS011;7822;48.146;11.576;2022-10-31T03:06:38;5.40;;;3.67;;
15443;SDS011;7822;48.146;11.576;2022-10-31T03:09:14;7.80;;;3.50;;
15443;SDS011;7822;48.146;11.576;2022-10-31T03:11:50;8.27;;;3.73;;
15443;SDS011;7822;48.146;11.576;2022-10-31T03:14:24;6.10;;;3.60;;
15443;SDS011;7822;48.146;11.576;2022-10-31T03:16:59;6.50;;;3.57;;
15443;SDS011;7822;48.146;11.576;2022-10-31T03:19:31;5.07;;;3.30;;
15443;SDS011;7822;48.146;11.576;2022-10-31T03:22:02;5.93;;;3.40;;
15443;SDS011;7822;48.146;11.576;2022-10-31T03:24:36;5.87;;;3.50;;
15443;SDS011;7822;48.146;11.576;2022-10-31T03:27:07;7.30;;;3.50;;
15443;SDS011;7822;48.146;11.576;2022-10-31T03:29:36;5.20;;;3.40;;
15443;SDS011;7822;48.146;11.576;2022-10-31T03:32:10;3.63;;;3.07;;
15443;SDS011;7822;48.146;11.576;2022-10-31T03:34:43;8.50;;;3.33;;
15443;SDS011;7822;48.146;11.576;2022-10-31T03:37:14;7.60;;;3.60;;
15443;SDS011;7822;48.146;11.576;2022-10-31T03:39:45;4.33;;;3.20;;
15443;SDS011;7822;48.146;11.576;2022-10-31T03:42:16;9.13;;;3.40;;
15443;SDS011;7822;48.146;11.576;2022-10-31T03:44:48;4.80;;;3.53;;
15443;SDS011;7822;48.146;11.576;2022-10-31T03:47:20;6.77;;;3.53;;
15443;SDS011;7822;48.146;11.576;2022-10-31T03:49:50;5.40;;;3.50;;
15443;SDS011;7822;48.146;11.576;2022-10-31T03:52:19;10.00;;;3.63;;
15443;SDS011;7822;48.146;11.576;2022-10-31T03:54:54;5.57;;;3.13;;
15443;SDS011;7822;48.146;11.576;2022-10-31T03:57:24;5.03;;;3.90;;
15443;SDS011;7822;48.146;11.576;2022-10-31T03:59:58;7.77;;;3.23;;
15443;SDS011;7822;48.146;11.576;2022-10-31T04:02:29;5.53;;;3.20;;
15443;SDS011;7822;48.146;11.576;2022-10-31T04:05:00;4.07;;;3.23;;
15443;SDS011;7822;48.146;11.576;2022-10-31T04:07:30;5.20;;;3.27;;
15443;SDS011;7822;48.146;11.576;2022-10-31T04:10:03;9.27;;;3.67;;
15443;SDS011;7822;48.146;11.576;2022-10-31T04:12:34;5.07;;;3.40;;
15443;SDS011;7822;48.146;11.576;2022-10-31T04:15:05;4.50;;;3.40;;
15443;SDS011;7822;48.146;11.576;2022-10-31T04:17:38;5.57;;;3.93;;
15443;SDS011;7822;48.146;11.576;2022-10-31T04:20:09;5.67;;;3.30;;
15443;SDS011;7822;48.146;11.576;2022-10-31T04:22:37;8.20;;;4.40;;
15443;SDS011;7822;48.146;11.576;2022-10-31T04:25:05;4.73;;;3.60;;
15443;SDS011;7822;48.146;11.576;2022-10-31T04:27:34;6.57;;;4.17;;
15443;SDS011;7822;48.146;11.576;2022-10-31T04:30:02;6.47;;;3.50;;
15443;SDS011;7822;48.146;11.576;2022-10-31T04:32:30;8.03;;;4.27;;
15443;SDS011;7822;48.146;11.576;2022-10-31T04:34:57;6.27;;;3.30;;
15443;SDS011;7822;48.146;11.576;2022-10-31T04:37:26;5.47;;;3.07;;
15443;SDS011;7822;48.146;11.576;2022-10-31T04:39:54;7.23;;;3.60;;
15443;SDS011;7822;48.146;11.576;2022-10-31T04:42:21;6.33;;;3.40;;
15443;SDS011;7822;48.146;11.576;2022-10-31T04:44:49;7.90;;;3.40;;
15443;SDS011;7822;48.146;11.576;2022-10-31T04:47:17;4.67;;;3.30;;
15443;SDS011;7822;48.146;11.576;2022-10-31T04:49:44;6.43;;;4.07;;
15443;SDS011;7822;48.146;11.576;2022-10-31T04:52:12;6.70;;;3.60;;
15443;SDS011;7822;48.146;11.576;2022-10-31T04:54:41;6.03;;;3.80;;
15443;SDS011;7822;48.146;11.576;2022-10-31T04:57:09;5.90;;;3.90;;
15443;SDS011;7822;48.146;11.576;2022-10-31T04:59:37;6.90;;;3.93;;
15443;SDS011;7822;48.146;11.576;2022-10-31T05:02:04;6.40;;;4.00;;
15443;SDS011;7822;48.146;11.576;2022-10-31T05:04:32;6.50;;;3.43;;
15443;SDS011;7822;48.146;11.576;2022-10-31T05:07:00;5.63;;;3.70;;
15443;SDS011;7822;48.146;11.576;2022-10-31T05:09:27;7.93;;;4.03;;
15443;SDS011;7822;48.146;11.576;2022-10-31T05:11:56;6.43;;;4.70;;
15443;SDS011;7822;48.146;11.576;2022-10-31T05:14:24;9.10;;;4.53;;
15443;SDS011;7822;48.146;11.576;2022-10-31T05:16:51;8.53;;;4.03;;
15443;SDS011;7822;48.146;11.576;2022-10-31T05:19:19;8.17;;;4.07;;
15443;SDS011;7822;48.146;11.576;2022-10-31T05:21:47;7.27;;;4.13;;
15443;SDS011;7822;48.146;11.576;2022-10-31T05:24:14;5.63;;;4.30;;
15443;SDS011;7822;48.146;11.576;2022-10-31T05:26:42;8.73;;;4.20;;
15443;SDS011;7822;48.146;11.576;2022-10-31T05:29:11;4.33;;;3.50;;
15443;SDS011;7822;48.146;11.576;2022-10-31T05:31:38;5.77;;;3.63;;
15443;SDS011;7822;48.146;11.576;2022-10-31T05:34:06;6.20;;;4.30;;
15443;SDS011;7822;48.146;11.576;2022-10-31T05:36:34;7.13;;;4.27;;
15443;SDS011;7822;48.146;11.576;2022-10-31T05:39:02;7.67;;;4.20;;
15443;SDS011;7822;48.146;11.576;2022-10-31T05:41:29;6.07;;;4.27;;
15443;SDS011;7822;48.146;11.576;2022-10-31T05:43:57;7.13;;;3.60;;
15443;SDS011;7822;48.146;11.576;2022-10-31T05:46:27;6.20;;;3.60;;
15443;SDS011;7822;48.146;11.576;2022-10-31T05:48:54;6.27;;;3.17;;
15443;SDS011;7822;48.146;11.576;2022-10-31T05:51:27;7.50;;;4.17;;
15443;SDS011;7822;48.146;11.576;2022-10-31T05:53:55;6.17;;;3.83;;
15443;SDS011;7822;48.146;11.576;2022-10-31T05:56:23;7.17;;;4.00;;
15443;SDS011;7822;48.146;11.576;2022-10-31T05:58:50;6.37;;;3.90;;
15443;SDS011;7822;48.146;11.576;2022-10-31T06:01:18;6.33;;;3.53;;
15443;SDS011;7822;48.146;11.576;2022-10-31T06:03:47;4.27;;;3.47;;
15443;SDS011;7822;48.146;11.576;2022-10-31T06:06:15;7.53;;;3.70;;
15443;SDS011;7822;48.146;11.576;2022-10-31T06:08:42;7.93;;;4.17;;
15443;SDS011;7822;48.146;11.576;2022-10-31T06:11:10;4.97;;;3.37;;
15443;SDS011;7822;48.146;11.576;2022-10-31T06:13:37;9.43;;;3.70;;
15443;SDS011;7822;48.146;11.576;2022-10-31T06:16:05;5.93;;;3.10;;
15443;SDS011;7822;48.146;11.576;2022-10-31T06:18:33;6.17;;;3.50;;
15443;SDS011;7822;48.146;11.576;2022-10-31T06:21:02;5.00;;;3.53;;
15443;SDS011;7822;48.146;11.576;2022-10-31T06:23:30;6.77;;;4.10;;
15443;SDS011;7822;48.146;11.576;2022-10-31T06:25:57;5.23;;;3.77;;
15443;SDS011;7822;48.146;11.576;2022-10-31T06:28:25;7.43;;;3.87;;
15443;SDS011;7822;48.146;11.576;2022-10-31T06:30:53;6.53;;;3.70;;
15443;SDS011;7822;48.146;11.576;2022-10-31T06:33:20;6.60;;;3.70;;
15443;SDS011;7822;48.146;11.576;2022-10-31T06:35:48;5.30;;;4.27;;
15443;SDS011;7822;48.146;11.576;2022-10-31T06:38:17;7.83;;;4.20;;
15443;SDS011;7822;48.146;11.576;2022-10-31T06:40:45;8.27;;;4.37;;
15443;SDS011;7822;48.146;11.576;2022-10-31T06:43:12;5.23;;;4.03;;
15443;SDS011;7822;48.146;11.576;2022-10-31T06:45:40;7.50;;;3.87;;
15443;SDS011;7822;48.146;11.576;2022-10-31T06:48:08;7.90;;;4.00;;
15443;SDS011;7822;48.146;11.576;2022-10-31T06:50:43;8.13;;;4.00;;
15443;SDS011;7822;48.146;11.576;2022-10-31T06:53:11;7.37;;;4.37;;
15443;SDS011;7822;48.146;11.576;2022-10-31T06:55:40;8.37;;;4.50;;
15443;SDS011;7822;48.146;11.576;2022-10-31T06:58:08;8.40;;;4.20;;
15443;SDS011;7822;48.146;11.576;2022-10-31T07:00:37;6.80;;;4.10;;
15443;SDS011;7822;48.146;11.576;2022-10-31T07:03:05;10.53;;;4.37;;
15443;SDS011;7822;48.146;11.576;2022-10-31T07:05:36;9.53;;;4.30;;
15443;SDS011;7822;48.146;11.576;2022-10-31T07:08:05;6.27;;;3.90;;
15443;SDS011;7822;48.146;11.576;2022-10-31T07:10:37;9.23;;;3.73;;
15443;SDS011;7822;48.146;11.576;2022-10-31T07:13:09;7.93;;;4.03;;
15443;SDS011;7822;48.146;11.576;2022-10-31T07:15:39;9.03;;;4.50;;
15443;SDS011;7822;48.146;11.576;2022-10-31T07:18:08;6.83;;;3.97;;
15443;SDS011;7822;48.146;11.576;2022-10-31T07:20:37;10.17;;;3.70;;
15443;SDS011;7822;48.146;11.576;2022-10-31T07:23:05;8.03;;;4.50;;
15443;SDS011;7822;48.146;11.576;2022-10-31T07:25:33;8.23;;;4.40;;
15443;SDS011;7822;48.146;11.576;2022-10-31T07:28:00;8.43;;;4.50;;
15443;SDS011;7822;48.146;11.576;2022-10-31T07:30:30;7.97;;;4.40;;
15443;SDS011;7822;48.146;11.576;2022-10-31T07:32:57;6.77;;;3.50;;
15443;SDS011;7822;48.146;11.576;2022-10-31T07:35:26;6.53;;;3.93;;
15443;SDS011;7822;48.146;11.576;2022-10-31T07:37:55;7.10;;;4.03;;
15443;SDS011;7822;48.146;11.576;2022-10-31T07:40:24;7.20;;;4.03;;
15443;SDS011;7822;48.146;11.576;2022-10-31T07:42:52;8.47;;;4.37;;
15443;SDS011;7822;48.146;11.576;2022-10-31T07:45:20;5.00;;;3.40;;
15443;SDS011;7822;48.146;11.576;2022-10-31T07:47:50;6.70;;;3.87;;
15443;SDS011;7822;48.146;11.576;2022-10-31T07:50:19;6.57;;;4.00;;
15443;SDS011;7822;48.146;11.576;2022-10-31T07:52:48;5.80;;;3.80;;
15443;SDS011;7822;48.146;11.576;2022-10-31T07:55:25;7.93;;;4.10;;
15443;SDS011;7822;48.146;11.576;2022-10-31T07:57:56;8.60;;;3.83;;
15443;SDS011;7822;48.146;11.576;2022-10-31T08:00:25;9.50;;;4.80;;
15443;SDS011;7822;48.146;11.576;2022-10-31T08:02:57;7.90;;;4.63;;
15443;SDS011;7822;48.146;11.576;2022-10-31T08:05:27;6.50;;;4.00;;
15443;SDS011;7822;48.146;11.576;2022-10-31T08:07:55;9.57;;;4.53;;
15443;SDS011;7822;48.146;11.576;2022-10-31T08:10:24;11.17;;;5.03;;
15443;SDS011;7822;48.146;11.576;2022-10-31T08:12:56;9.37;;;4.87;;
15443;SDS011;7822;48.146;11.576;2022-10-31T08:15:24;8.70;;;4.63;;
15443;SDS011;7822;48.146;11.576;2022-10-31T08:17:53;6.80;;;5.47;;
15443;SDS011;7822;48.146;11.576;2022-10-31T08:20:22;9.33;;;5.10;;
15443;SDS011;7822;48.146;11.576;2022-10-31T08:22:53;9.23;;;4.77;;
15443;SDS011;7822;48.146;11.576;2022-10-31T08:25:22;9.20;;;5.00;;
15443;SDS011;7822;48.146;11.576;2022-10-31T08:27:50;10.17;;;4.90;;
15443;SDS011;7822;48.146;11.576;2022-10-31T08:30:18;9.00;;;5.50;;
15443;SDS011;7822;48.146;11.576;2022-10-31T08:32:46;8.80;;;5.63;;
15443;SDS011;7822;48.146;11.576;2022-10-31T08:35:14;8.70;;;4.77;;
15443;SDS011;7822;48.146;11.576;2022-10-31T08:37:43;10.33;;;5.27;;
15443;SDS011;7822;48.146;11.576;2022-10-31T08:40:11;11.03;;;5.27;;
15443;SDS011;7822;48.146;11.576;2022-10-31T08:42:39;8.83;;;5.97;;
15443;SDS011;7822;48.146;11.576;2022-10-31T08:45:07;12.10;;;6.30;;
15443;SDS011;7822;48.146;11.576;2022-10-31T08:47:34;8.97;;;5.70;;
15443;SDS011;7822;48.146;11.576;2022-10-31T08:50:03;7.47;;;5.50;;
15443;SDS011;7822;48.146;11.576;2022-10-31T08:52:31;11.73;;;6.40;;
15443;SDS011;7822;48.146;11.576;2022-10-31T08:55:20;10.30;;;6.83;;
15443;SDS011;7822;48.146;11.576;2022-10-31T08:57:47;12.20;;;5.90;;
15443;SDS011;7822;48.146;11.576;2022-10-31T09:00:15;8.63;;;5.73;;
15443;SDS011;7822;48.146;11.576;2022-10-31T09:02:43;9.43;;;5.47;;
15443;SDS011;7822;48.146;11.576;2022-10-31T09:05:10;10.43;;;5.90;;
15443;SDS011;7822;48.146;11.576;2022-10-31T09:07:38;10.10;;;6.27;;
15443;SDS011;7822;48.146;11.576;2022-10-31T09:10:06;10.30;;;6.23;;
15443;SDS011;7822;48.146;11.576;2022-10-31T09:12:35;9.50;;;6.00;;
15443;SDS011;7822;48.146;11.576;2022-10-31T09:15:03;8.83;;;5.60;;
15443;SDS011;7822;48.146;11.576;2022-10-31T09:17:32;8.13;;;6.07;;
15443;SDS011;7822;48.146;11.576;2022-10-31T09:20:00;9.33;;;5.83;;
15443;SDS011;7822;48.146;11.576;2022-10-31T09:22:27;8.80;;;5.20;;
15443;SDS011;7822;48.146;11.576;2022-10-31T09:24:55;8.37;;;6.00;;
15443;SDS011;7822;48.146;11.576;2022-10-31T09:27:22;8.47;;;6.10;;
15443;SDS011;7822;48.146;11.576;2022-10-31T09:29:51;10.05;;;5.80;;
15443;SDS011;7822;48.146;11.576;2022-10-31T09:32:19;7.73;;;5.50;;
15443;SDS011;7822;48.146;11.576;2022-10-31T09:34:47;7.45;;;5.38;;
15443;SDS011;7822;48.146;11.576;2022-10-31T09:37:14;9.18;;;4.82;;
15443;SDS011;7822;48.146;11.576;2022-10-31T09:39:42;7.07;;;4.63;;
15443;SDS011;7822;48.146;11.576;2022-10-31T09:42:21;10.63;;;4.80;;
15443;SDS011;7822;48.146;11.576;2022-10-31T09:45:18;8.63;;;4.60;;
15443;SDS011;7822;48.146;11.576;2022-10-31T09:47:53;7.70;;;4.85;;
15443;SDS011;7822;48.146;11.576;2022-10-31T09:50:29;10.65;;;4.63;;
15443;SDS011;7822;48.146;11.576;2022-10-31T09:53:05;8.02;;;4.05;;
15443;SDS011;7822;48.146;11.576;2022-10-31T09:55:39;7.03;;;3.80;;
15443;SDS011;7822;48.146;11.576;2022-10-31T09:58:09;6.07;;;3.17;;
15443;SDS011;7822;48.146;11.576;2022-10-31T10:00:46;4.47;;;3.40;;
15443;SDS011;7822;48.146;11.576;2022-10-31T10:03:21;7.00;;;3.45;;
15443;SDS011;7822;48.146;11.576;2022-10-31T10:05:58;7.22;;;4.15;;
15443;SDS011;7822;48.146;11.576;2022-10-31T10:08:34;6.28;;;3.47;;
15443;SDS011;7822;48.146;11.576;2022-10-31T10:11:06;5.35;;;3.28;;
15443;SDS011;7822;48.146;11.576;2022-10-31T10:13:49;5.70;;;3.70;;
15443;SDS011;7822;48.146;11.576;2022-10-31T10:16:31;5.35;;;3.33;;
15443;SDS011;7822;48.146;11.576;2022-10-31T10:19:13;7.28;;;3.45;;
15443;SDS011;7822;48.146;11.576;2022-10-31T10:21:54;5.53;;;3.15;;
15443;SDS011;7822;48.146;11.576;2022-10-31T10:24:30;6.50;;;2.95;;
15443;SDS011;7822;48.146;11.576;2022-10-31T10:27:11;6.55;;;3.15;;
15443;SDS011;7822;48.146;11.576;2022-10-31T10:29:50;9.82;;;3.97;;
15443;SDS011;7822;48.146;11.576;2022-10-31T10:32:25;6.07;;;3.00;;
15443;SDS011;7822;48.146;11.576;2022-10-31T10:34:57;6.30;;;2.90;;
15443;SDS011;7822;48.146;11.576;2022-10-31T10:37:30;5.63;;;3.38;;
15443;SDS011;7822;48.146;11.576;2022-10-31T10:40:03;7.03;;;3.03;;
15443;SDS011;7822;48.146;11.576;2022-10-31T10:42:35;6.35;;;3.17;;
15443;SDS011;7822;48.146;11.576;2022-10-31T10:45:21;4.50;;;2.88;;
15443;SDS011;7822;48.146;11.576;2022-10-31T10:48:10;7.25;;;3.40;;
15443;SDS011;7822;48.146;11.576;2022-10-31T10:50:44;4.28;;;2.80;;
15443;SDS011;7822;48.146;11.576;2022-10-31T10:53:23;4.43;;;2.60;;
15443;SDS011;7822;48.146;11.576;2022-10-31T10:56:08;7.07;;;3.13;;
15443;SDS011;7822;48.146;11.576;2022-10-31T10:58:42;5.60;;;2.97;;
15443;SDS011;7822;48.146;11.576;2022-10-31T11:01:12;5.93;;;3.10;;
15443;SDS011;7822;48.146;11.576;2022-10-31T11:03:47;6.00;;;2.85;;
15443;SDS011;7822;48.146;11.576;2022-10-31T11:06:18;6.88;;;3.05;;
15443;SDS011;7822;48.146;11.576;2022-10-31T11:08:51;5.50;;;2.78;;
15443;SDS011;7822;48.146;11.576;2022-10-31T11:11:23;7.00;;;2.97;;
15443;SDS011;7822;48.146;11.576;2022-10-31T11:13:55;9.77;;;3.63;;
15443;SDS011;7822;48.146;11.576;2022-10-31T11:16:28;5.95;;;2.95;;
15443;SDS011;7822;48.146;11.576;2022-10-31T11:19:15;6.68;;;2.58;;
15443;SDS011;7822;48.146;11.576;2022-10-31T11:21:45;5.18;;;2.95;;
15443;SDS011;7822;48.146;11.576;2022-10-31T11:24:20;6.22;;;2.85;;
15443;SDS011;7822;48.146;11.576;2022-10-31T11:26:49;9.25;;;3.50;;
15443;SDS011;7822;48.146;11.576;2022-10-31T11:29:20;23.70;;;5.72;;
15443;SDS011;7822;48.146;11.576;2022-10-31T11:31:51;13.65;;;4.97;;
15443;SDS011;7822;48.146;11.576;2022-10-31T11:34:26;16.65;;;5.10;;
15443;SDS011;7822;48.146;11.576;2022-10-31T11:36:58;7.30;;;3.55;;
15443;SDS011;7822;48.146;11.576;2022-10-31T11:39:30;7.75;;;3.08;;
15443;SDS011;7822;48.146;11.576;2022-10-31T11:41:59;6.18;;;2.75;;
15443;SDS011;7822;48.146;11.576;2022-10-31T11:44:34;6.07;;;2.63;;
15443;SDS011;7822;48.146;11.576;2022-10-31T11:47:02;6.70;;;3.53;;
15443;SDS011;7822;48.146;11.576;2022-10-31T11:49:34;7.57;;;3.70;;
15443;SDS011;7822;48.146;11.576;2022-10-31T11:52:04;8.90;;;3.10;;
15443;SDS011;7822;48.146;11.576;2022-10-31T11:54:38;7.72;;;3.25;;
15443;SDS011;7822;48.146;11.576;2022-10-31T11:57:25;8.07;;;3.22;;
15443;SDS011;7822;48.146;11.576;2022-10-31T11:59:55;8.13;;;3.00;;
15443;SDS011;7822;48.146;11.576;2022-10-31T12:02:24;6.38;;;3.28;;
15443;SDS011;7822;48.146;11.576;2022-10-31T12:04:58;6.28;;;3.63;;
15443;SDS011;7822;48.146;11.576;2022-10-31T12:07:30;5.57;;;2.78;;
15443;SDS011;7822;48.146;11.576;2022-10-31T12:09:58;7.55;;;2.80;;
15443;SDS011;7822;48.146;11.576;2022-10-31T12:12:34;7.20;;;3.08;;
15443;SDS011;7822;48.146;11.576;2022-10-31T12:18:03;7.15;;;3.35;;
15443;SDS011;7822;48.146;11.576;2022-10-31T12:20:54;8.88;;;3.40;;
15443;SDS011;7822;48.146;11.576;2022-10-31T12:23:34;5.88;;;3.30;;
15443;SDS011;7822;48.146;11.576;2022-10-31T12:26:11;4.65;;;3.53;;
15443;SDS011;7822;48.146;11.576;2022-10-31T12:28:51;9.93;;;3.88;;
15443;SDS011;7822;48.146;11.576;2022-10-31T12:31:42;7.30;;;3.72;;
15443;SDS011;7822;48.146;11.576;2022-10-31T12:34:22;9.25;;;3.55;;
15443;SDS011;7822;48.146;11.576;2022-10-31T12:37:18;6.47;;;3.90;;
15443;SDS011;7822;48.146;11.576;2022-10-31T12:39:59;7.47;;;3.75;;
15443;SDS011;7822;48.146;11.576;2022-10-31T12:42:51;8.43;;;3.30;;
15443;SDS011;7822;48.146;11.576;2022-10-31T12:45:36;7.57;;;3.33;;
15443;SDS011;7822;48.146;11.576;2022-10-31T12:48:27;6.82;;;3.28;;
15443;SDS011;7822;48.146;11.576;2022-10-31T12:51:10;6.35;;;3.47;;
15443;SDS011;7822;48.146;11.576;2022-10-31T12:53:51;6.07;;;2.75;;
15443;SDS011;7822;48.146;11.576;2022-10-31T12:56:34;6.60;;;3.00;;
15443;SDS011;7822;48.146;11.576;2022-10-31T12:59:12;4.50;;;3.30;;
15443;SDS011;7822;48.146;11.576;2022-10-31T13:01:47;5.80;;;2.80;;
15443;SDS011;7822;48.146;11.576;2022-10-31T13:04:24;6.05;;;3.10;;
15443;SDS011;7822;48.146;11.576;2022-10-31T13:07:03;4.88;;;3.10;;
15443;SDS011;7822;48.146;11.576;2022-10-31T13:09:41;5.57;;;2.78;;
15443;SDS011;7822;48.146;11.576;2022-10-31T13:12:15;4.88;;;3.05;;
15443;SDS011;7822;48.146;11.576;2022-10-31T13:14:47;6.80;;;2.97;;
15443;SDS011;7822;48.146;11.576;2022-10-31T13:17:20;6.68;;;3.67;;
15443;SDS011;7822;48.146;11.576;2022-10-31T13:19:53;7.60;;;3.88;;
15443;SDS011;7822;48.146;11.576;2022-10-31T13:22:30;5.72;;;3.20;;
15443;SDS011;7822;48.146;11.576;2022-10-31T13:25:03;6.55;;;3.35;;
15443;SDS011;7822;48.146;11.576;2022-10-31T13:27:42;5.50;;;3.05;;
15443;SDS011;7822;48.146;11.576;2022-10-31T13:30:15;6.45;;;3.47;;
15443;SDS011;7822;48.146;11.576;2022-10-31T13:32:48;5.10;;;3.08;;
15443;SDS011;7822;48.146;11.576;2022-10-31T13:35:20;5.80;;;3.33;;
15443;SDS011;7822;48.146;11.576;2022-10-31T13:37:56;5.78;;;3.00;;
15443;SDS011;7822;48.146;11.576;2022-10-31T13:40:37;5.20;;;3.03;;
15443;SDS011;7822;48.146;11.576;2022-10-31T13:43:11;4.32;;;3.47;;
15443;SDS011;7822;48.146;11.576;2022-10-31T13:45:49;5.60;;;3.22;;
15443;SDS011;7822;48.146;11.576;2022-10-31T13:48:19;4.28;;;3.53;;
15443;SDS011;7822;48.146;11.576;2022-10-31T13:51:01;3.83;;;2.80;;
15443;SDS011;7822;48.146;11.576;2022-10-31T13:53:38;4.95;;;3.58;;
15443;SDS011;7822;48.146;11.576;2022-10-31T13:56:16;4.07;;;2.90;;
15443;SDS011;7822;48.146;11.576;2022-10-31T13:58:56;5.18;;;3.08;;
15443;SDS011;7822;48.146;11.576;2022-10-31T14:01:27;4.25;;;3.15;;
15443;SDS011;7822;48.146;11.576;2022-10-31T14:03:57;6.65;;;3.50;;
15443;SDS011;7822;48.146;11.576;2022-10-31T14:06:44;5.57;;;3.30;;
15443;SDS011;7822;48.146;11.576;2022-10-31T14:09:19;5.20;;;3.20;;
15443;SDS011;7822;48.146;11.576;2022-10-31T14:11:51;4.82;;;3.10;;
15443;SDS011;7822;48.146;11.576;2022-10-31T14:14:20;5.85;;;3.17;;
15443;SDS011;7822;48.146;11.576;2022-10-31T14:16:53;4.07;;;3.10;;
15443;SDS011;7822;48.146;11.576;2022-10-31T14:19:22;5.53;;;3.47;;
15443;SDS011;7822;48.146;11.576;2022-10-31T14:21:51;6.55;;;3.42;;
15443;SDS011;7822;48.146;11.576;2022-10-31T14:24:35;4.38;;;3.30;;
15443;SDS011;7822;48.146;11.576;2022-10-31T14:30:20;7.40;;;3.67;;
15443;SDS011;7822;48.146;11.576;2022-10-31T14:32:51;6.55;;;3.70;;
15443;SDS011;7822;48.146;11.576;2022-10-31T14:35:21;7.63;;;3.97;;
15443;SDS011;7822;48.146;11.576;2022-10-31T14:38:04;6.18;;;3.75;;
15443;SDS011;7822;48.146;11.576;2022-10-31T14:40:51;9.25;;;4.32;;
15443;SDS011;7822;48.146;11.576;2022-10-31T14:43:35;6.10;;;4.00;;
15443;SDS011;7822;48.146;11.576;2022-10-31T14:46:17;7.40;;;4.13;;
15443;SDS011;7822;48.146;11.576;2022-10-31T14:49:02;5.85;;;4.07;;
15443;SDS011;7822;48.146;11.576;2022-10-31T14:51:42;5.50;;;4.13;;
15443;SDS011;7822;48.146;11.576;2022-10-31T14:54:12;8.45;;;4.60;;
15443;SDS011;7822;48.146;11.576;2022-10-31T14:56:48;6.50;;;4.63;;
15443;SDS011;7822;48.146;11.576;2022-10-31T14:59:21;8.75;;;4.85;;
15443;SDS011;7822;48.146;11.576;2022-10-31T15:01:56;7.18;;;4.25;;
15443;SDS011;7822;48.146;11.576;2022-10-31T15:04:26;7.22;;;4.40;;
15443;SDS011;7822;48.146;11.576;2022-10-31T15:06:57;6.35;;;4.40;;
15443;SDS011;7822;48.146;11.576;2022-10-31T15:09:30;9.07;;;5.32;;
15443;SDS011;7822;48.146;11.576;2022-10-31T15:11:59;7.30;;;4.65;;
15443;SDS011;7822;48.146;11.576;2022-10-31T15:14:27;6.88;;;5.68;;
15443;SDS011;7822;48.146;11.576;2022-10-31T15:16:58;12.10;;;6.25;;
15443;SDS011;7822;48.146;11.576;2022-10-31T15:19:30;7.28;;;5.53;;
15443;SDS011;7822;48.146;11.576;2022-10-31T15:22:02;11.15;;;5.97;;
15443;SDS011;7822;48.146;11.576;2022-10-31T15:24:32;9.93;;;6.70;;
15443;SDS011;7822;48.146;11.576;2022-10-31T15:27:02;7.93;;;6.38;;